createdAt,value
2022-08-25T00:01:56.973Z,2.00
2022-08-25T00:04:25.454Z,2.33
2022-08-25T00:06:53.545Z,2.70
2022-08-25T00:09:23.106Z,1.92
2022-08-25T00:11:50.606Z,2.20
2022-08-25T00:14:24.213Z,2.50
2022-08-25T00:16:51.516Z,2.58
2022-08-25T00:19:24.081Z,2.40
2022-08-25T00:21:51.658Z,2.33
2022-08-25T00:24:21.257Z,2.58
2022-08-25T00:26:50.734Z,2.03
2022-08-25T00:29:17.996Z,2.03
2022-08-25T00:31:45.604Z,1.92
2022-08-25T00:34:23.935Z,1.85
2022-08-25T00:36:51.907Z,1.98
2022-08-25T00:39:21.130Z,2.30
2022-08-25T00:41:49.947Z,2.10
2022-08-25T00:44:20.482Z,2.20
2022-08-25T00:46:50.571Z,1.83
2022-08-25T00:49:24.785Z,2.25
2022-08-25T00:52:04.082Z,2.08
2022-08-25T00:54:37.036Z,1.73
2022-08-25T00:57:06.776Z,2.28
2022-08-25T00:59:34.506Z,2.05
2022-08-25T01:02:02.487Z,1.70
2022-08-25T01:04:29.676Z,2.10
2022-08-25T01:06:58.182Z,2.15
2022-08-25T01:09:25.007Z,1.88
2022-08-25T01:11:52.868Z,1.73
2022-08-25T01:14:21.569Z,2.00
2022-08-25T01:16:51.056Z,2.00
2022-08-25T01:19:21.202Z,1.63
2022-08-25T01:21:53.019Z,1.60
2022-08-25T01:24:29.156Z,1.80
2022-08-25T01:26:55.798Z,1.83
2022-08-25T01:29:22.926Z,2.38
2022-08-25T01:31:57.673Z,1.80
2022-08-25T01:34:26.982Z,1.95
2022-08-25T01:36:54.975Z,1.75
2022-08-25T01:39:22.163Z,1.75
2022-08-25T01:41:48.692Z,1.95
2022-08-25T01:44:18.486Z,1.95
2022-08-25T01:46:45.205Z,2.17
2022-08-25T01:49:12.426Z,2.50
2022-08-25T01:51:44.544Z,2.67
2022-08-25T01:54:11.193Z,2.85
2022-08-25T01:56:39.034Z,2.45
2022-08-25T01:59:05.746Z,2.78
2022-08-25T02:01:32.519Z,2.30
2022-08-25T02:03:59.769Z,2.17
2022-08-25T02:06:30.014Z,1.90
2022-08-25T02:09:05.116Z,1.73
2022-08-25T02:11:32.874Z,2.40
2022-08-25T02:13:59.874Z,1.92
2022-08-25T02:16:31.078Z,2.05
2022-08-25T02:18:59.293Z,1.98
2022-08-25T02:21:26.791Z,2.42
2022-08-25T02:23:53.852Z,2.75
2022-08-25T02:26:20.793Z,1.98
2022-08-25T02:28:49.694Z,3.05
2022-08-25T02:31:18.088Z,2.33
2022-08-25T02:33:45.420Z,2.60
2022-08-25T02:36:15.357Z,2.90
2022-08-25T02:38:42.568Z,3.05
2022-08-25T02:41:18.302Z,2.50
2022-08-25T02:43:46.744Z,2.60
2022-08-25T02:46:13.451Z,2.13
2022-08-25T02:48:41.493Z,2.75
2022-08-25T02:51:10.208Z,3.20
2022-08-25T02:53:39.905Z,3.13
2022-08-25T02:56:11.867Z,4.13
2022-08-25T02:58:40.617Z,4.10
2022-08-25T03:01:11.862Z,2.90
2022-08-25T03:03:44.252Z,3.78
2022-08-25T03:06:13.137Z,4.32
2022-08-25T03:08:42.137Z,4.20
2022-08-25T03:11:09.409Z,4.13
2022-08-25T03:13:37.086Z,3.92
2022-08-25T03:16:11.175Z,3.97
2022-08-25T03:18:40.584Z,4.60
2022-08-25T03:21:08.244Z,4.32
2022-08-25T03:23:35.539Z,4.65
2022-08-25T03:26:20.787Z,4.97
2022-08-25T03:28:47.486Z,4.10
2022-08-25T03:31:14.387Z,4.45
2022-08-25T03:33:41.212Z,4.90
2022-08-25T03:36:09.108Z,4.07
2022-08-25T03:38:38.266Z,3.78
2022-08-25T03:41:20.424Z,4.43
2022-08-25T03:43:47.708Z,4.43
2022-08-25T03:46:29.357Z,4.18
2022-08-25T03:48:57.085Z,4.50
2022-08-25T03:51:31.261Z,4.90
2022-08-25T03:53:59.004Z,4.47
2022-08-25T03:56:27.345Z,4.95
2022-08-25T03:58:54.837Z,4.20
2022-08-25T04:01:22.723Z,4.20
2022-08-25T04:03:50.193Z,3.47
2022-08-25T04:06:18.629Z,3.97
2022-08-25T04:08:45.550Z,4.63
2022-08-25T04:11:15.711Z,4.38
2022-08-25T04:13:42.421Z,5.57
2022-08-25T04:16:16.386Z,4.25
2022-08-25T04:18:44.083Z,4.55
2022-08-25T04:21:11.986Z,4.88
2022-08-25T04:23:40.706Z,6.05
2022-08-25T04:26:17.363Z,4.47
2022-08-25T04:28:44.018Z,4.53
2022-08-25T04:31:12.310Z,5.32
2022-08-25T04:33:39.279Z,4.65
2022-08-25T04:36:12.259Z,5.40
2022-08-25T04:38:41.253Z,5.82
2022-08-25T04:41:10.211Z,5.95
2022-08-25T04:43:38.721Z,5.90
2022-08-25T04:46:12.478Z,4.93
2022-08-25T04:48:40.263Z,5.40
2022-08-25T04:51:10.136Z,4.88
2022-08-25T04:53:37.985Z,5.80
2022-08-25T04:56:14.608Z,5.38
2022-08-25T04:58:41.853Z,5.47
2022-08-25T05:01:11.789Z,5.75
2022-08-25T05:03:38.833Z,5.68
2022-08-25T05:06:06.332Z,5.00
2022-08-25T05:08:33.856Z,5.15
2022-08-25T05:11:14.334Z,5.47
2022-08-25T05:13:41.591Z,4.75
2022-08-25T05:16:09.944Z,6.15
2022-08-25T05:18:38.678Z,5.55
2022-08-25T05:21:12.172Z,5.63
2022-08-25T05:23:40.294Z,5.55
2022-08-25T05:26:17.717Z,5.82
2022-08-25T05:28:48.766Z,5.30
2022-08-25T05:31:15.743Z,7.65
2022-08-25T05:33:42.682Z,6.43
2022-08-25T05:36:11.160Z,6.63
2022-08-25T05:38:39.739Z,7.15
2022-08-25T05:41:16.514Z,6.55
2022-08-25T05:43:44.881Z,6.13
2022-08-25T05:46:18.774Z,6.43
2022-08-25T05:48:46.169Z,7.47
2022-08-25T05:51:15.329Z,7.90
2022-08-25T05:53:44.831Z,6.93
2022-08-25T05:56:14.022Z,6.20
2022-08-25T05:58:42.020Z,6.65
2022-08-25T06:01:28.980Z,7.18
2022-08-25T06:03:55.706Z,6.97
2022-08-25T06:06:24.422Z,6.57
2022-08-25T06:08:51.839Z,7.95
2022-08-25T06:11:19.341Z,7.70
2022-08-25T06:13:46.611Z,7.00
2022-08-25T06:16:13.832Z,7.22
2022-08-25T06:18:40.851Z,6.93
2022-08-25T06:21:10.247Z,6.57
2022-08-25T06:23:38.521Z,7.38
2022-08-25T06:26:05.495Z,6.97
2022-08-25T06:28:32.163Z,6.93
2022-08-25T06:31:00.872Z,7.38
2022-08-25T06:33:27.990Z,7.00
2022-08-25T06:35:56.447Z,7.30
2022-08-25T06:38:24.483Z,7.72
2022-08-25T06:40:57.817Z,6.35
2022-08-25T06:43:24.644Z,6.07
2022-08-25T06:45:53.844Z,6.15
2022-08-25T06:48:20.515Z,6.05
2022-08-25T06:50:47.262Z,6.95
2022-08-25T06:53:15.149Z,6.30
2022-08-25T06:55:42.695Z,6.15
2022-08-25T06:58:10.262Z,5.15
2022-08-25T07:00:38.289Z,5.00
2022-08-25T07:03:05.266Z,6.03
2022-08-25T07:05:42.783Z,4.22
2022-08-25T07:08:11.987Z,4.70
2022-08-25T07:10:39.033Z,5.22
2022-08-25T07:13:06.002Z,5.45
2022-08-25T07:15:32.728Z,5.80
2022-08-25T07:17:59.785Z,5.35
2022-08-25T07:22:53.038Z,4.63
2022-08-25T07:25:19.746Z,4.80
2022-08-25T07:27:46.698Z,5.25
2022-08-25T07:30:14.110Z,5.13
2022-08-25T07:32:42.259Z,4.75
2022-08-25T07:35:15.989Z,4.38
2022-08-25T07:37:58.118Z,5.43
2022-08-25T07:40:34.311Z,5.10
2022-08-25T07:43:04.111Z,4.53
2022-08-25T07:45:34.299Z,4.15
2022-08-25T07:48:09.853Z,4.38
2022-08-25T07:50:39.190Z,4.45
2022-08-25T07:53:06.080Z,4.30
2022-08-25T07:55:36.482Z,4.72
2022-08-25T07:58:06.014Z,4.50
2022-08-25T08:00:37.074Z,4.32
2022-08-25T08:03:05.602Z,5.18
2022-08-25T08:08:03.939Z,4.57
2022-08-25T08:10:54.245Z,4.28
2022-08-25T08:13:18.803Z,4.05
2022-08-25T08:15:46.414Z,4.40
2022-08-25T08:18:13.558Z,4.05
2022-08-25T08:20:44.393Z,4.03
2022-08-25T08:23:12.312Z,4.25
2022-08-25T08:25:38.991Z,4.07
2022-08-25T08:28:05.819Z,3.10
2022-08-25T08:30:36.526Z,3.50
2022-08-25T08:33:10.197Z,3.00
2022-08-25T08:35:38.890Z,2.63
2022-08-25T08:38:13.558Z,2.08
2022-08-25T08:41:22.954Z,2.22
2022-08-25T08:43:55.744Z,2.40
2022-08-25T08:46:23.159Z,2.33
2022-08-25T08:49:06.216Z,2.03
2022-08-25T08:51:42.285Z,2.33
2022-08-25T08:54:23.045Z,2.20
2022-08-25T08:56:56.174Z,1.80
2022-08-25T08:59:30.014Z,2.00
2022-08-25T09:02:03.051Z,2.67
2022-08-25T09:04:39.702Z,2.30
2022-08-25T09:07:13.051Z,2.67
2022-08-25T09:09:42.984Z,1.90
2022-08-25T09:12:23.679Z,2.00
2022-08-25T09:15:18.354Z,1.75
2022-08-25T09:18:41.077Z,1.80
2022-08-25T09:21:43.417Z,1.80
2022-08-25T09:24:20.425Z,1.83
2022-08-25T09:27:10.796Z,1.90
2022-08-25T09:30:05.331Z,1.90
2022-08-25T09:32:48.667Z,2.13
2022-08-25T09:35:28.833Z,2.10
2022-08-25T09:38:02.990Z,2.10
2022-08-25T09:40:32.158Z,1.92
2022-08-25T09:43:02.039Z,1.73
2022-08-25T09:45:35.051Z,2.15
2022-08-25T09:48:02.768Z,2.20
2022-08-25T09:50:34.762Z,1.65
2022-08-25T09:53:17.337Z,1.88
2022-08-25T09:55:52.293Z,1.67
2022-08-25T09:58:29.549Z,1.80
2022-08-25T10:01:14.628Z,1.58
2022-08-25T10:04:00.715Z,1.98
2022-08-25T10:06:34.184Z,1.70
2022-08-25T10:09:08.318Z,1.80
2022-08-25T10:11:37.973Z,2.08
2022-08-25T10:14:08.443Z,1.80
2022-08-25T10:16:36.432Z,1.70
2022-08-25T10:19:23.445Z,1.98
2022-08-25T10:22:10.819Z,1.92
2022-08-25T10:24:41.085Z,1.98
2022-08-25T10:27:31.163Z,1.88
2022-08-25T10:30:19.241Z,1.70
2022-08-25T10:33:20.351Z,1.85
2022-08-25T10:36:23.542Z,2.00
2022-08-25T10:39:01.966Z,1.83
2022-08-25T10:42:10.174Z,1.60
2022-08-25T10:45:23.720Z,1.70
2022-08-25T10:48:04.616Z,1.65
2022-08-25T10:50:41.035Z,1.45
2022-08-25T10:53:36.744Z,1.48
2022-08-25T10:56:25.136Z,1.65
2022-08-25T10:59:01.520Z,1.83
2022-08-25T11:01:38.890Z,1.60
2022-08-25T11:04:15.951Z,1.30
2022-08-25T11:06:52.733Z,1.70
2022-08-25T11:09:39.064Z,2.33
2022-08-25T11:12:18.256Z,1.63
2022-08-25T11:14:48.218Z,1.40
2022-08-25T11:17:20.900Z,1.40
2022-08-25T11:19:52.150Z,1.50
2022-08-25T11:22:45.987Z,1.63
2022-08-25T11:25:36.748Z,1.80
2022-08-25T11:28:12.884Z,1.30
2022-08-25T11:30:40.447Z,1.58
2022-08-25T11:33:12.104Z,1.67
2022-08-25T11:35:43.654Z,1.83
2022-08-25T11:38:29.400Z,1.80
2022-08-25T11:41:22.864Z,1.50
2022-08-25T11:43:52.942Z,1.88
2022-08-25T11:49:30.604Z,1.65
2022-08-25T11:52:02.913Z,1.50
2022-08-25T11:54:43.744Z,1.33
2022-08-25T11:57:22.230Z,1.55
2022-08-25T11:59:59.575Z,1.70
2022-08-25T12:02:47.666Z,1.60
2022-08-25T12:05:17.498Z,1.30
2022-08-25T12:07:47.392Z,1.55
2022-08-25T12:10:22.594Z,1.52
2022-08-25T12:13:04.799Z,1.23
2022-08-25T12:15:56.421Z,1.30
2022-08-25T12:18:26.922Z,1.27
2022-08-25T12:20:53.952Z,1.20
2022-08-25T12:23:38.244Z,1.50
2022-08-25T12:26:29.487Z,1.30
2022-08-25T12:29:16.901Z,1.60
2022-08-25T12:32:04.669Z,1.33
2022-08-25T12:34:40.171Z,1.65
2022-08-25T12:37:21.371Z,1.40
2022-08-25T12:39:51.485Z,1.20
2022-08-25T12:42:31.719Z,1.20
2022-08-25T12:45:14.180Z,1.20
2022-08-25T12:47:44.971Z,1.20
2022-08-25T12:50:39.092Z,1.30
2022-08-25T12:53:18.126Z,1.25
2022-08-25T12:55:50.379Z,1.45
2022-08-25T12:58:18.056Z,1.40
2022-08-25T13:00:57.988Z,1.50
2022-08-25T13:03:47.404Z,1.27
2022-08-25T13:06:33.040Z,1.40
2022-08-25T13:09:25.185Z,1.42
2022-08-25T13:12:31.701Z,1.25
2022-08-25T13:15:01.472Z,1.20
2022-08-25T13:17:35.036Z,1.35
2022-08-25T13:20:17.330Z,1.55
2022-08-25T13:22:47.483Z,1.10
2022-08-25T13:25:23.033Z,1.40
2022-08-25T13:28:05.800Z,1.30
2022-08-25T13:30:37.258Z,1.40
2022-08-25T13:33:24.135Z,1.40
2022-08-25T13:36:15.393Z,1.38
2022-08-25T13:38:46.573Z,1.80
2022-08-25T13:41:28.954Z,1.00
2022-08-25T13:44:00.767Z,1.30
2022-08-25T13:46:28.780Z,1.30
2022-08-25T13:49:07.060Z,1.17
2022-08-25T13:51:36.758Z,1.23
2022-08-25T13:54:07.245Z,1.25
2022-08-25T13:56:41.897Z,1.42
2022-08-25T13:59:40.096Z,1.35
2022-08-25T14:02:09.100Z,1.58
2022-08-25T14:04:51.056Z,1.23
2022-08-25T14:07:22.719Z,1.08
2022-08-25T14:10:00.760Z,1.35
2022-08-25T14:12:46.648Z,1.23
2022-08-25T14:15:32.000Z,1.20
2022-08-25T14:18:06.307Z,1.40
2022-08-25T14:20:35.218Z,1.13
2022-08-25T14:23:09.896Z,1.48
2022-08-25T14:25:40.746Z,1.10
2022-08-25T14:28:15.416Z,1.50
2022-08-25T14:30:52.957Z,1.20
2022-08-25T14:33:24.595Z,1.10
2022-08-25T14:35:54.428Z,1.48
2022-08-25T14:38:22.718Z,1.33
2022-08-25T14:40:51.360Z,1.50
2022-08-25T14:43:20.918Z,1.35
2022-08-25T14:45:51.871Z,1.20
2022-08-25T14:48:29.668Z,1.23
2022-08-25T14:50:59.639Z,1.05
2022-08-25T14:53:27.549Z,1.20
2022-08-25T14:55:59.056Z,1.27
2022-08-25T14:58:27.097Z,0.98
2022-08-25T15:00:54.949Z,1.15
2022-08-25T15:03:30.040Z,1.30
2022-08-25T15:06:01.035Z,1.08
2022-08-25T15:08:47.561Z,1.20
2022-08-25T15:11:15.065Z,1.20
2022-08-25T15:13:43.840Z,1.00
2022-08-25T15:16:23.295Z,1.08
2022-08-25T15:18:50.664Z,1.10
2022-08-25T15:21:19.135Z,1.05
2022-08-25T15:23:46.228Z,1.00
2022-08-25T15:26:14.114Z,1.17
2022-08-25T15:28:45.452Z,1.17
2022-08-25T15:31:12.731Z,1.13
2022-08-25T15:33:39.899Z,1.67
2022-08-25T15:36:15.299Z,1.70
2022-08-25T15:38:46.707Z,1.88
2022-08-25T15:41:13.771Z,1.42
2022-08-25T15:43:43.294Z,1.52
2022-08-25T15:46:14.569Z,1.38
2022-08-25T15:48:42.405Z,1.17
2022-08-25T15:51:10.096Z,1.55
2022-08-25T15:53:36.847Z,1.70
2022-08-25T15:56:06.901Z,1.80
2022-08-25T15:58:35.377Z,1.48
2022-08-25T16:01:03.253Z,1.52
2022-08-25T16:03:31.747Z,1.30
2022-08-25T16:05:58.565Z,1.70
2022-08-25T16:08:25.426Z,1.73
2022-08-25T16:10:52.697Z,1.48
2022-08-25T16:13:19.408Z,1.23
2022-08-25T16:15:53.075Z,1.40
2022-08-25T16:18:23.391Z,1.50
2022-08-25T16:20:51.825Z,1.40
2022-08-25T16:23:21.339Z,1.25
2022-08-25T16:25:48.765Z,1.70
2022-08-25T16:28:17.522Z,1.33
2022-08-25T16:30:52.655Z,1.75
2022-08-25T16:33:20.343Z,1.40
2022-08-25T16:35:49.331Z,1.35
2022-08-25T16:38:16.160Z,1.40
2022-08-25T16:40:43.475Z,1.73
2022-08-25T16:43:11.708Z,2.10
2022-08-25T16:45:38.753Z,1.80
2022-08-25T16:48:07.595Z,1.65
2022-08-25T16:50:35.607Z,1.90
2022-08-25T16:53:23.980Z,2.53
2022-08-25T16:56:00.964Z,2.97
2022-08-25T16:58:28.008Z,3.75
2022-08-25T17:01:07.124Z,3.85
2022-08-25T17:03:37.064Z,3.10
2022-08-25T17:06:05.909Z,3.85
2022-08-25T17:08:36.186Z,3.95
2022-08-25T17:11:15.003Z,3.47
2022-08-25T17:13:49.647Z,3.85
2022-08-25T17:16:17.873Z,3.85
2022-08-25T17:18:47.770Z,3.83
2022-08-25T17:21:24.633Z,3.75
2022-08-25T17:23:53.192Z,3.85
2022-08-25T17:26:20.344Z,3.53
2022-08-25T17:28:54.880Z,4.20
2022-08-25T17:31:23.485Z,3.60
2022-08-25T17:33:52.347Z,3.63
2022-08-25T17:36:19.416Z,3.20
2022-08-25T17:38:46.675Z,3.95
2022-08-25T17:41:15.269Z,4.10
2022-08-25T17:43:43.640Z,2.85
2022-08-25T17:46:12.504Z,3.92
2022-08-25T17:48:43.821Z,3.80
2022-08-25T17:51:11.444Z,3.67
2022-08-25T17:53:38.988Z,4.25
2022-08-25T17:56:14.018Z,3.13
2022-08-25T17:58:42.550Z,3.15
2022-08-25T18:01:19.446Z,4.13
2022-08-25T18:03:49.478Z,3.97
2022-08-25T18:06:16.664Z,3.85
2022-08-25T18:08:44.343Z,3.42
2022-08-25T18:11:12.032Z,3.53
2022-08-25T18:13:39.586Z,3.80
2022-08-25T18:16:08.846Z,3.30
2022-08-25T18:18:37.152Z,3.83
2022-08-25T18:21:04.354Z,3.80
2022-08-25T18:23:33.905Z,4.43
2022-08-25T18:26:01.327Z,3.15
2022-08-25T18:28:29.719Z,3.88
2022-08-25T18:30:57.045Z,3.53
2022-08-25T18:33:24.092Z,3.88
2022-08-25T18:35:50.781Z,3.67
2022-08-25T18:38:36.424Z,3.60
2022-08-25T18:41:06.671Z,4.78
2022-08-25T18:43:35.178Z,4.22
2022-08-25T18:46:06.936Z,4.15
2022-08-25T18:48:35.277Z,3.60
2022-08-25T18:51:02.298Z,3.70
2022-08-25T18:53:49.556Z,4.38
2022-08-25T18:56:18.183Z,4.78
2022-08-25T18:58:46.656Z,3.75
2022-08-25T19:01:15.880Z,3.17
2022-08-25T19:03:44.320Z,4.65
2022-08-25T19:06:11.504Z,4.15
2022-08-25T19:08:41.876Z,3.58
2022-08-25T19:11:09.800Z,4.32
2022-08-25T19:13:37.429Z,4.38
2022-08-25T19:16:30.279Z,4.32
2022-08-25T19:18:57.471Z,3.65
2022-08-25T19:21:25.206Z,3.50
2022-08-25T19:23:53.860Z,4.38
2022-08-25T19:26:21.386Z,3.50
2022-08-25T19:28:49.457Z,4.85
2022-08-25T19:31:18.683Z,4.20
2022-08-25T19:33:47.884Z,3.78
2022-08-25T19:36:17.566Z,4.70
2022-08-25T19:38:44.498Z,3.85
2022-08-25T19:41:14.543Z,4.15
2022-08-25T19:43:55.226Z,3.88
2022-08-25T19:46:33.409Z,4.97
2022-08-25T19:49:12.768Z,4.15
2022-08-25T19:51:44.146Z,3.78
2022-08-25T19:54:13.776Z,4.05
2022-08-25T19:56:53.703Z,4.35
2022-08-25T19:59:40.649Z,4.38
2022-08-25T20:02:12.652Z,4.13
2022-08-25T20:04:49.912Z,4.40
2022-08-25T20:07:19.302Z,3.92
2022-08-25T20:09:46.363Z,4.38
2022-08-25T20:14:40.334Z,4.85
2022-08-25T20:17:14.586Z,4.05
2022-08-25T20:19:57.216Z,5.15
2022-08-25T20:22:26.949Z,4.13
2022-08-25T20:24:59.103Z,4.20
2022-08-25T20:27:33.324Z,4.38
2022-08-25T20:30:02.556Z,4.15
2022-08-25T20:32:31.418Z,5.15
2022-08-25T20:34:58.226Z,4.75
2022-08-25T20:37:25.900Z,4.43
2022-08-25T20:39:53.018Z,4.97
2022-08-25T20:42:20.073Z,4.20
2022-08-25T20:44:47.179Z,5.13
2022-08-25T20:47:14.957Z,5.03
2022-08-25T20:49:44.860Z,5.20
2022-08-25T20:52:12.007Z,4.45
2022-08-25T20:54:40.351Z,5.20
2022-08-25T20:57:08.142Z,4.68
2022-08-25T20:59:35.299Z,4.93
2022-08-25T21:02:02.290Z,5.13
2022-08-25T21:04:31.169Z,4.80
2022-08-25T21:07:00.322Z,5.38
2022-08-25T21:09:28.119Z,4.97
2022-08-25T21:11:56.681Z,4.63
2022-08-25T21:14:24.903Z,4.38
2022-08-25T21:16:53.850Z,5.40
2022-08-25T21:19:26.893Z,4.63
2022-08-25T21:21:59.764Z,4.80
2022-08-25T21:24:28.430Z,4.70
2022-08-25T21:26:59.712Z,4.50
2022-08-25T21:29:28.470Z,4.70
2022-08-25T21:31:58.565Z,5.55
2022-08-25T21:34:26.044Z,5.07
2022-08-25T21:36:57.982Z,4.40
2022-08-25T21:39:28.068Z,5.35
2022-08-25T21:41:56.804Z,5.88
2022-08-25T21:44:23.634Z,5.43
2022-08-25T21:46:54.254Z,5.30
2022-08-25T21:49:22.594Z,5.43
2022-08-25T21:51:59.289Z,5.60
2022-08-25T21:54:26.792Z,5.32
2022-08-25T21:56:59.620Z,5.00
2022-08-25T21:59:32.445Z,5.32
2022-08-25T22:02:03.234Z,5.05
2022-08-25T22:04:31.078Z,5.45
2022-08-25T22:06:58.196Z,4.88
2022-08-25T22:09:28.151Z,5.25
2022-08-25T22:11:56.028Z,5.47
2022-08-25T22:14:24.273Z,5.35
2022-08-25T22:16:54.154Z,5.53
2022-08-25T22:19:21.540Z,5.45
2022-08-25T22:21:50.981Z,5.43
2022-08-25T22:24:18.143Z,5.35
2022-08-25T22:26:47.415Z,5.03
2022-08-25T22:29:14.706Z,5.30
2022-08-25T22:31:52.867Z,5.20
2022-08-25T22:34:19.911Z,4.47
2022-08-25T22:36:59.491Z,4.75
2022-08-25T22:39:27.511Z,4.70
2022-08-25T22:41:54.310Z,5.07
2022-08-25T22:44:23.326Z,6.35
2022-08-25T22:46:50.165Z,4.57
2022-08-25T22:49:18.503Z,5.72
2022-08-25T22:51:46.950Z,5.85
2022-08-25T22:54:15.167Z,6.28
2022-08-25T22:56:42.387Z,5.75
2022-08-25T22:59:12.610Z,5.28
2022-08-25T23:01:39.828Z,6.37
2022-08-25T23:04:08.002Z,5.47
2022-08-25T23:06:35.265Z,6.03
2022-08-25T23:09:03.521Z,6.07
2022-08-25T23:11:30.408Z,5.57
2022-08-25T23:14:05.586Z,5.75
2022-08-25T23:16:33.059Z,5.30
2022-08-25T23:19:00.325Z,5.88
2022-08-25T23:21:45.395Z,5.72
2022-08-25T23:24:13.996Z,5.30
2022-08-25T23:26:54.098Z,5.55
2022-08-25T23:29:21.088Z,5.13
2022-08-25T23:31:48.178Z,5.70
2022-08-25T23:34:16.496Z,5.90
2022-08-25T23:36:43.916Z,6.00
2022-08-25T23:39:11.436Z,4.95
2022-08-25T23:41:38.453Z,5.57
2022-08-25T23:44:11.450Z,4.68
2022-08-25T23:46:39.416Z,5.30
2022-08-25T23:49:09.366Z,6.32
2022-08-25T23:51:40.990Z,5.05
2022-08-25T23:54:10.876Z,5.55
2022-08-25T23:56:44.842Z,5.03
2022-08-25T23:59:19.965Z,5.60
